Terminal Aerodrome Forecast
Issued by NWS Key West, FL

Home | Current Version | Previous Version | Text Only | Print | Product List | Glossary On
Versions: 1 2 3 4 5 6 7 8 9 10 11 12 13 14 15 16 17 18 19 20 21 22
000
FTUS42 KKEY 202332
TAFEYW
TAF
KEYW 202332Z 2100/2124 11015G25KT P6SM FEW020
     FM210600 11015KT P6SM SCT020 BKN040
     FM211300 10015G20KT P6SM FEW020 SCT040=

USA.gov is the U.S. government's official web portal to all federal, state and local government web resources and services.